sensor_id;sensor_type;location;lat;lon;timestamp;pressure;altitude;pressure_sealevel;temperature;humidity
73063;BME280;61230;46.328;19.972;2023-08-01T00:00:03;100067.66;;;16.59;100.00
73063;BME280;61230;46.328;19.972;2023-08-01T00:02:38;100070.31;;;16.59;100.00
73063;BME280;61230;46.328;19.972;2023-08-01T00:05:06;100073.44;;;16.62;100.00
73063;BME280;61230;46.328;19.972;2023-08-01T00:07:34;100034.09;;;16.37;100.00
73063;BME280;61230;46.328;19.972;2023-08-01T00:10:04;100067.66;;;16.59;100.00
73063;BME280;61230;46.328;19.972;2023-08-01T00:12:32;100063.72;;;16.55;100.00
73063;BME280;61230;46.328;19.972;2023-08-01T00:15:00;100056.94;;;16.52;100.00
73063;BME280;61230;46.328;19.972;2023-08-01T00:17:28;100061.34;;;16.45;100.00
73063;BME280;61230;46.328;19.972;2023-08-01T00:19:56;100064.84;;;16.46;100.00
73063;BME280;61230;46.328;19.972;2023-08-01T00:22:24;100071.41;;;16.50;100.00
73063;BME280;61230;46.328;19.972;2023-08-01T00:24:52;100059.78;;;16.51;100.00
73063;BME280;61230;46.328;19.972;2023-08-01T00:27:20;100059.34;;;16.47;100.00
73063;BME280;61230;46.328;19.972;2023-08-01T00:29:48;100049.34;;;16.49;100.00
73063;BME280;61230;46.328;19.972;2023-08-01T00:32:16;100050.66;;;16.53;100.00
73063;BME280;61230;46.328;19.972;2023-08-01T00:34:43;100042.78;;;16.45;100.00
73063;BME280;61230;46.328;19.972;2023-08-01T00:37:12;100034.13;;;16.22;100.00
73063;BME280;61230;46.328;19.972;2023-08-01T00:39:39;100035.38;;;16.26;100.00
73063;BME280;61230;46.328;19.972;2023-08-01T00:42:07;100036.09;;;16.35;100.00
73063;BME280;61230;46.328;19.972;2023-08-01T00:44:35;100033.63;;;16.33;100.00
73063;BME280;61230;46.328;19.972;2023-08-01T00:47:03;100028.53;;;16.32;100.00
73063;BME280;61230;46.328;19.972;2023-08-01T00:49:32;100029.06;;;16.27;100.00
73063;BME280;61230;46.328;19.972;2023-08-01T00:52:02;100016.53;;;16.21;100.00
73063;BME280;61230;46.328;19.972;2023-08-01T00:54:30;100025.53;;;16.20;100.00
73063;BME280;61230;46.328;19.972;2023-08-01T00:57:04;100016.37;;;16.23;100.00
73063;BME280;61230;46.328;19.972;2023-08-01T00:59:32;100018.00;;;16.24;100.00
73063;BME280;61230;46.328;19.972;2023-08-01T01:02:00;100002.00;;;16.17;100.00
73063;BME280;61230;46.328;19.972;2023-08-01T01:04:28;100014.53;;;16.23;100.00
73063;BME280;61230;46.328;19.972;2023-08-01T01:07:06;100013.25;;;16.19;100.00
73063;BME280;61230;46.328;19.972;2023-08-01T01:09:34;100015.41;;;15.94;100.00
73063;BME280;61230;46.328;19.972;2023-08-01T01:12:02;100006.72;;;15.86;100.00
73063;BME280;61230;46.328;19.972;2023-08-01T01:14:31;100005.44;;;15.82;100.00
73063;BME280;61230;46.328;19.972;2023-08-01T01:16:59;100001.41;;;15.86;100.00
73063;BME280;61230;46.328;19.972;2023-08-01T01:19:27;100012.88;;;15.86;100.00
73063;BME280;61230;46.328;19.972;2023-08-01T01:21:55;99997.31;;;15.83;100.00
73063;BME280;61230;46.328;19.972;2023-08-01T01:24:24;100000.22;;;15.88;100.00
73063;BME280;61230;46.328;19.972;2023-08-01T01:26:55;99989.16;;;15.56;100.00
73063;BME280;61230;46.328;19.972;2023-08-01T01:29:24;99959.56;;;15.52;100.00
73063;BME280;61230;46.328;19.972;2023-08-01T01:31:52;99944.88;;;15.41;100.00
73063;BME280;61230;46.328;19.972;2023-08-01T01:34:20;99986.16;;;15.73;100.00
73063;BME280;61230;46.328;19.972;2023-08-01T01:36:49;99985.41;;;15.79;100.00
73063;BME280;61230;46.328;19.972;2023-08-01T01:39:16;99971.69;;;15.76;100.00
73063;BME280;61230;46.328;19.972;2023-08-01T01:41:45;99979.38;;;15.71;100.00
73063;BME280;61230;46.328;19.972;2023-08-01T01:44:13;99983.50;;;15.73;100.00
73063;BME280;61230;46.328;19.972;2023-08-01T01:46:40;99939.03;;;15.46;100.00
73063;BME280;61230;46.328;19.972;2023-08-01T01:49:08;99974.78;;;15.79;100.00
73063;BME280;61230;46.328;19.972;2023-08-01T01:51:36;99935.13;;;15.57;100.00
73063;BME280;61230;46.328;19.972;2023-08-01T01:54:04;99973.44;;;15.83;100.00
73063;BME280;61230;46.328;19.972;2023-08-01T01:56:31;99967.56;;;15.88;100.00
73063;BME280;61230;46.328;19.972;2023-08-01T01:59:00;99932.81;;;15.68;100.00
73063;BME280;61230;46.328;19.972;2023-08-01T02:01:27;99980.38;;;15.84;100.00
73063;BME280;61230;46.328;19.972;2023-08-01T02:03:55;99982.38;;;15.82;100.00
73063;BME280;61230;46.328;19.972;2023-08-01T02:06:22;99937.31;;;15.53;100.00
73063;BME280;61230;46.328;19.972;2023-08-01T02:08:50;99980.09;;;15.79;100.00
73063;BME280;61230;46.328;19.972;2023-08-01T02:11:18;99976.81;;;15.77;100.00
73063;BME280;61230;46.328;19.972;2023-08-01T02:13:45;99975.63;;;15.80;100.00
73063;BME280;61230;46.328;19.972;2023-08-01T02:16:13;99933.75;;;15.61;100.00
73063;BME280;61230;46.328;19.972;2023-08-01T02:18:41;99975.53;;;15.88;100.00
73063;BME280;61230;46.328;19.972;2023-08-01T02:21:08;99966.34;;;15.90;100.00
73063;BME280;61230;46.328;19.972;2023-08-01T02:23:36;99964.53;;;15.91;100.00
73063;BME280;61230;46.328;19.972;2023-08-01T02:26:05;99921.47;;;15.45;100.00
73063;BME280;61230;46.328;19.972;2023-08-01T02:28:33;99923.63;;;15.49;100.00
73063;BME280;61230;46.328;19.972;2023-08-01T02:31:01;99966.47;;;15.82;100.00
73063;BME280;61230;46.328;19.972;2023-08-01T02:33:28;99967.56;;;15.73;100.00
73063;BME280;61230;46.328;19.972;2023-08-01T02:35:56;99969.75;;;15.84;100.00
73063;BME280;61230;46.328;19.972;2023-08-01T02:38:24;99970.94;;;15.82;100.00
73063;BME280;61230;46.328;19.972;2023-08-01T02:40:51;99977.25;;;15.81;100.00
73063;BME280;61230;46.328;19.972;2023-08-01T02:43:19;99971.31;;;15.64;100.00
73063;BME280;61230;46.328;19.972;2023-08-01T02:45:47;99973.34;;;15.62;100.00
73063;BME280;61230;46.328;19.972;2023-08-01T02:48:15;99967.94;;;15.41;100.00
73063;BME280;61230;46.328;19.972;2023-08-01T02:50:43;99971.72;;;15.46;100.00
73063;BME280;61230;46.328;19.972;2023-08-01T02:53:10;99974.50;;;15.45;100.00
73063;BME280;61230;46.328;19.972;2023-08-01T02:55:38;99968.31;;;15.52;100.00
73063;BME280;61230;46.328;19.972;2023-08-01T02:58:06;99966.09;;;15.41;100.00
73063;BME280;61230;46.328;19.972;2023-08-01T03:00:38;99957.88;;;15.36;100.00
73063;BME280;61230;46.328;19.972;2023-08-01T03:03:06;99964.09;;;15.43;100.00
73063;BME280;61230;46.328;19.972;2023-08-01T03:05:37;99958.78;;;15.43;100.00
73063;BME280;61230;46.328;19.972;2023-08-01T03:08:05;99954.69;;;15.41;100.00
73063;BME280;61230;46.328;19.972;2023-08-01T03:10:32;99954.00;;;15.24;100.00
73063;BME280;61230;46.328;19.972;2023-08-01T03:13:03;99909.59;;;15.12;100.00
73063;BME280;61230;46.328;19.972;2023-08-01T03:15:31;99952.03;;;15.26;100.00
73063;BME280;61230;46.328;19.972;2023-08-01T03:17:59;99947.25;;;15.22;100.00
73063;BME280;61230;46.328;19.972;2023-08-01T03:20:28;99948.63;;;15.18;100.00
73063;BME280;61230;46.328;19.972;2023-08-01T03:22:55;99946.72;;;15.26;100.00
73063;BME280;61230;46.328;19.972;2023-08-01T03:25:23;99948.72;;;15.24;100.00
73063;BME280;61230;46.328;19.972;2023-08-01T03:27:51;99951.22;;;15.40;100.00
73063;BME280;61230;46.328;19.972;2023-08-01T03:30:18;99952.78;;;15.49;100.00
73063;BME280;61230;46.328;19.972;2023-08-01T03:32:47;99959.62;;;15.59;100.00
73063;BME280;61230;46.328;19.972;2023-08-01T03:35:15;99959.81;;;15.57;100.00
73063;BME280;61230;46.328;19.972;2023-08-01T03:37:42;99948.56;;;15.40;100.00
73063;BME280;61230;46.328;19.972;2023-08-01T03:40:10;99909.63;;;15.26;100.00
73063;BME280;61230;46.328;19.972;2023-08-01T03:42:38;99953.41;;;15.66;100.00
73063;BME280;61230;46.328;19.972;2023-08-01T03:45:06;99933.66;;;15.54;100.00
73063;BME280;61230;46.328;19.972;2023-08-01T03:47:33;99939.13;;;15.67;100.00
73063;BME280;61230;46.328;19.972;2023-08-01T03:50:02;99951.41;;;15.68;100.00
73063;BME280;61230;46.328;19.972;2023-08-01T03:52:30;99946.91;;;15.69;100.00
73063;BME280;61230;46.328;19.972;2023-08-01T03:54:57;99951.84;;;15.72;100.00
73063;BME280;61230;46.328;19.972;2023-08-01T03:57:25;99958.41;;;15.76;100.00
73063;BME280;61230;46.328;19.972;2023-08-01T03:59:53;99959.97;;;15.70;100.00
73063;BME280;61230;46.328;19.972;2023-08-01T04:02:20;99953.22;;;15.68;100.00
73063;BME280;61230;46.328;19.972;2023-08-01T04:04:49;99951.84;;;15.72;100.00
73063;BME280;61230;46.328;19.972;2023-08-01T04:07:17;99952.75;;;15.79;100.00
73063;BME280;61230;46.328;19.972;2023-08-01T04:09:46;99952.00;;;15.85;100.00
73063;BME280;61230;46.328;19.972;2023-08-01T04:12:14;99946.41;;;15.94;100.00
73063;BME280;61230;46.328;19.972;2023-08-01T04:14:41;99948.97;;;16.02;100.00
73063;BME280;61230;46.328;19.972;2023-08-01T04:17:09;99948.84;;;16.10;100.00
73063;BME280;61230;46.328;19.972;2023-08-01T04:19:37;99943.97;;;16.14;100.00
73063;BME280;61230;46.328;19.972;2023-08-01T04:22:04;99940.63;;;16.27;100.00
73063;BME280;61230;46.328;19.972;2023-08-01T04:24:32;99939.13;;;16.39;100.00
73063;BME280;61230;46.328;19.972;2023-08-01T04:27:00;99934.31;;;16.49;100.00
73063;BME280;61230;46.328;19.972;2023-08-01T04:29:27;99916.34;;;16.51;100.00
73063;BME280;61230;46.328;19.972;2023-08-01T04:31:55;99929.22;;;16.69;100.00
73063;BME280;61230;46.328;19.972;2023-08-01T04:34:23;99899.88;;;16.55;100.00
73063;BME280;61230;46.328;19.972;2023-08-01T04:36:50;99933.88;;;16.88;100.00
73063;BME280;61230;46.328;19.972;2023-08-01T04:39:18;99927.63;;;17.02;100.00
73063;BME280;61230;46.328;19.972;2023-08-01T04:41:46;99933.37;;;17.05;100.00
73063;BME280;61230;46.328;19.972;2023-08-01T04:44:13;99933.03;;;17.15;100.00
73063;BME280;61230;46.328;19.972;2023-08-01T04:46:41;99931.25;;;17.29;100.00
73063;BME280;61230;46.328;19.972;2023-08-01T04:49:10;99935.44;;;17.44;100.00
73063;BME280;61230;46.328;19.972;2023-08-01T04:51:37;99944.16;;;17.59;100.00
73063;BME280;61230;46.328;19.972;2023-08-01T04:54:04;99938.28;;;17.70;100.00
73063;BME280;61230;46.328;19.972;2023-08-01T04:56:32;99935.03;;;17.82;100.00
73063;BME280;61230;46.328;19.972;2023-08-01T04:59:00;99938.75;;;17.87;100.00
73063;BME280;61230;46.328;19.972;2023-08-01T05:01:29;99938.38;;;18.03;100.00
73063;BME280;61230;46.328;19.972;2023-08-01T05:03:57;99935.75;;;18.10;100.00
73063;BME280;61230;46.328;19.972;2023-08-01T05:06:25;99934.75;;;18.24;100.00
73063;BME280;61230;46.328;19.972;2023-08-01T05:08:53;99941.53;;;18.33;100.00
73063;BME280;61230;46.328;19.972;2023-08-01T05:11:21;99940.97;;;18.51;100.00
73063;BME280;61230;46.328;19.972;2023-08-01T05:13:48;99935.66;;;18.64;100.00
73063;BME280;61230;46.328;19.972;2023-08-01T05:16:16;99935.47;;;18.78;100.00
73063;BME280;61230;46.328;19.972;2023-08-01T05:18:44;99933.81;;;18.90;100.00
73063;BME280;61230;46.328;19.972;2023-08-01T05:21:11;99936.66;;;19.02;100.00
73063;BME280;61230;46.328;19.972;2023-08-01T05:23:39;99938.31;;;19.10;100.00
73063;BME280;61230;46.328;19.972;2023-08-01T05:26:06;99902.63;;;18.98;100.00
73063;BME280;61230;46.328;19.972;2023-08-01T05:28:34;99939.06;;;19.36;100.00
73063;BME280;61230;46.328;19.972;2023-08-01T05:31:02;99946.47;;;19.47;100.00
73063;BME280;61230;46.328;19.972;2023-08-01T05:33:30;99948.28;;;19.60;99.63
73063;BME280;61230;46.328;19.972;2023-08-01T05:35:57;99936.53;;;19.74;98.57
73063;BME280;61230;46.328;19.972;2023-08-01T05:38:25;99938.94;;;19.82;99.97
73063;BME280;61230;46.328;19.972;2023-08-01T05:40:53;99940.53;;;19.96;99.81
73063;BME280;61230;46.328;19.972;2023-08-01T05:43:20;99935.50;;;20.13;96.95
73063;BME280;61230;46.328;19.972;2023-08-01T05:45:48;99937.31;;;20.26;96.84
73063;BME280;61230;46.328;19.972;2023-08-01T05:48:20;99936.62;;;20.37;98.13
73063;BME280;61230;46.328;19.972;2023-08-01T05:50:48;99940.84;;;20.51;93.20
73063;BME280;61230;46.328;19.972;2023-08-01T05:53:15;99931.47;;;20.67;92.46
73063;BME280;61230;46.328;19.972;2023-08-01T05:55:43;99933.22;;;20.79;92.01
73063;BME280;61230;46.328;19.972;2023-08-01T05:58:10;99921.88;;;20.84;91.57
73063;BME280;61230;46.328;19.972;2023-08-01T06:00:38;99925.97;;;21.11;89.74
73063;BME280;61230;46.328;19.972;2023-08-01T06:03:06;99934.31;;;21.21;89.45
73063;BME280;61230;46.328;19.972;2023-08-01T06:05:35;99928.84;;;21.34;86.83
73063;BME280;61230;46.328;19.972;2023-08-01T06:08:03;99925.69;;;21.55;85.41
73063;BME280;61230;46.328;19.972;2023-08-01T06:10:31;99925.75;;;21.67;83.41
73063;BME280;61230;46.328;19.972;2023-08-01T06:12:58;99918.75;;;21.84;82.64
73063;BME280;61230;46.328;19.972;2023-08-01T06:15:26;99914.59;;;21.88;79.35
73063;BME280;61230;46.328;19.972;2023-08-01T06:17:54;99914.19;;;22.03;78.07
73063;BME280;61230;46.328;19.972;2023-08-01T06:20:21;99918.69;;;22.20;78.15
73063;BME280;61230;46.328;19.972;2023-08-01T06:22:49;99908.00;;;22.32;77.34
73063;BME280;61230;46.328;19.972;2023-08-01T06:25:17;99912.94;;;22.47;75.70
73063;BME280;61230;46.328;19.972;2023-08-01T06:27:44;99907.59;;;22.58;74.97
73063;BME280;61230;46.328;19.972;2023-08-01T06:30:12;99880.31;;;22.50;73.73
73063;BME280;61230;46.328;19.972;2023-08-01T06:32:40;99913.38;;;22.85;71.53
73063;BME280;61230;46.328;19.972;2023-08-01T06:35:08;99917.91;;;22.96;71.64
73063;BME280;61230;46.328;19.972;2023-08-01T06:37:35;99920.50;;;23.14;70.86
73063;BME280;61230;46.328;19.972;2023-08-01T06:40:04;99913.25;;;23.26;68.82
73063;BME280;61230;46.328;19.972;2023-08-01T06:42:31;99908.00;;;23.43;68.47
73063;BME280;61230;46.328;19.972;2023-08-01T06:44:59;99908.53;;;23.57;67.30
73063;BME280;61230;46.328;19.972;2023-08-01T06:47:27;99905.00;;;23.68;66.75
73063;BME280;61230;46.328;19.972;2023-08-01T06:49:54;99870.25;;;23.61;66.81
73063;BME280;61230;46.328;19.972;2023-08-01T06:52:22;99916.63;;;23.85;63.34
73063;BME280;61230;46.328;19.972;2023-08-01T06:54:50;99913.38;;;23.83;63.73
73063;BME280;61230;46.328;19.972;2023-08-01T06:57:17;99902.97;;;23.86;63.81
73063;BME280;61230;46.328;19.972;2023-08-01T06:59:45;99915.13;;;23.89;64.06
73063;BME280;61230;46.328;19.972;2023-08-01T07:02:12;99907.22;;;23.99;62.88
73063;BME280;61230;46.328;19.972;2023-08-01T07:04:40;99916.69;;;24.01;60.79
73063;BME280;61230;46.328;19.972;2023-08-01T07:07:07;99911.91;;;24.03;60.72
73063;BME280;61230;46.328;19.972;2023-08-01T07:09:36;99887.13;;;24.01;59.91
73063;BME280;61230;46.328;19.972;2023-08-01T07:12:04;99907.59;;;24.31;60.56
73063;BME280;61230;46.328;19.972;2023-08-01T07:14:32;99909.94;;;24.44;61.27
73063;BME280;61230;46.328;19.972;2023-08-01T07:17:00;99905.09;;;24.57;61.41
73063;BME280;61230;46.328;19.972;2023-08-01T07:19:27;99904.19;;;24.69;61.63
73063;BME280;61230;46.328;19.972;2023-08-01T07:21:55;99914.34;;;24.67;59.54
73063;BME280;61230;46.328;19.972;2023-08-01T07:24:25;99868.31;;;24.63;60.03
73063;BME280;61230;46.328;19.972;2023-08-01T07:26:55;99911.13;;;24.98;61.18
73063;BME280;61230;46.328;19.972;2023-08-01T07:29:23;99909.63;;;25.07;58.70
73063;BME280;61230;46.328;19.972;2023-08-01T07:31:51;99905.56;;;25.04;59.25
73063;BME280;61230;46.328;19.972;2023-08-01T07:34:20;99894.75;;;25.21;59.77
73063;BME280;61230;46.328;19.972;2023-08-01T07:36:50;99896.50;;;25.32;59.44
73063;BME280;61230;46.328;19.972;2023-08-01T07:39:18;99894.91;;;25.31;58.83
73063;BME280;61230;46.328;19.972;2023-08-01T07:41:45;99900.34;;;25.36;55.97
73063;BME280;61230;46.328;19.972;2023-08-01T07:44:13;99865.28;;;25.31;56.05
73063;BME280;61230;46.328;19.972;2023-08-01T07:46:40;99889.53;;;25.53;54.13
73063;BME280;61230;46.328;19.972;2023-08-01T07:49:08;99888.59;;;25.64;53.46
73063;BME280;61230;46.328;19.972;2023-08-01T07:51:36;99881.06;;;25.66;53.88
73063;BME280;61230;46.328;19.972;2023-08-01T07:54:04;99852.09;;;25.51;53.92
73063;BME280;61230;46.328;19.972;2023-08-01T07:56:32;99868.91;;;25.63;53.19
73063;BME280;61230;46.328;19.972;2023-08-01T07:58:59;99876.12;;;25.80;53.02
73063;BME280;61230;46.328;19.972;2023-08-01T08:01:27;99881.28;;;26.08;53.67
73063;BME280;61230;46.328;19.972;2023-08-01T08:03:55;99856.56;;;25.94;53.06
73063;BME280;61230;46.328;19.972;2023-08-01T08:06:22;99872.28;;;26.24;53.25
73063;BME280;61230;46.328;19.972;2023-08-01T08:08:50;99871.25;;;26.30;52.50
73063;BME280;61230;46.328;19.972;2023-08-01T08:11:18;99872.97;;;26.41;52.17
73063;BME280;61230;46.328;19.972;2023-08-01T08:13:46;99873.09;;;26.56;51.98
73063;BME280;61230;46.328;19.972;2023-08-01T08:16:13;99888.19;;;26.57;51.63
73063;BME280;61230;46.328;19.972;2023-08-01T08:18:41;99871.69;;;26.80;51.51
73063;BME280;61230;46.328;19.972;2023-08-01T08:21:09;99863.31;;;26.82;51.69
73063;BME280;61230;46.328;19.972;2023-08-01T08:23:38;99862.84;;;26.90;51.32
73063;BME280;61230;46.328;19.972;2023-08-01T08:26:05;99861.19;;;26.84;52.08
73063;BME280;61230;46.328;19.972;2023-08-01T08:28:34;99862.25;;;26.88;52.78
73063;BME280;61230;46.328;19.972;2023-08-01T08:31:02;99866.84;;;26.51;50.92
73063;BME280;61230;46.328;19.972;2023-08-01T08:33:31;99853.66;;;26.59;50.33
73063;BME280;61230;46.328;19.972;2023-08-01T08:35:59;99848.03;;;26.61;50.45
73063;BME280;61230;46.328;19.972;2023-08-01T08:38:26;99859.84;;;26.87;48.36
73063;BME280;61230;46.328;19.972;2023-08-01T08:41:09;99828.53;;;26.91;47.58
73063;BME280;61230;46.328;19.972;2023-08-01T08:43:37;99858.63;;;27.14;47.94
73063;BME280;61230;46.328;19.972;2023-08-01T08:46:05;99852.41;;;27.14;46.77
73063;BME280;61230;46.328;19.972;2023-08-01T08:48:34;99848.69;;;27.25;47.87
73063;BME280;61230;46.328;19.972;2023-08-01T08:51:02;99848.75;;;27.35;47.49
73063;BME280;61230;46.328;19.972;2023-08-01T08:53:31;99817.66;;;27.32;48.17
73063;BME280;61230;46.328;19.972;2023-08-01T08:56:01;99840.75;;;27.65;48.36
73063;BME280;61230;46.328;19.972;2023-08-01T08:58:29;99808.59;;;27.64;47.92
73063;BME280;61230;46.328;19.972;2023-08-01T09:01:00;99838.88;;;27.76;47.94
73063;BME280;61230;46.328;19.972;2023-08-01T09:03:28;99838.41;;;27.89;49.55
73063;BME280;61230;46.328;19.972;2023-08-01T09:06:09;99834.28;;;27.76;47.54
73063;BME280;61230;46.328;19.972;2023-08-01T09:08:40;99831.06;;;27.79;47.52
73063;BME280;61230;46.328;19.972;2023-08-01T09:11:11;99824.66;;;28.06;48.54
73063;BME280;61230;46.328;19.972;2023-08-01T09:13:39;99830.56;;;27.98;45.96
73063;BME280;61230;46.328;19.972;2023-08-01T09:16:09;99799.22;;;28.07;46.25
73063;BME280;61230;46.328;19.972;2023-08-01T09:19:06;99825.16;;;28.53;46.37
73063;BME280;61230;46.328;19.972;2023-08-01T09:21:36;99811.91;;;28.72;46.50
73063;BME280;61230;46.328;19.972;2023-08-01T09:24:14;99774.56;;;28.69;46.17
73063;BME280;61230;46.328;19.972;2023-08-01T09:26:43;99804.28;;;28.84;45.67
73063;BME280;61230;46.328;19.972;2023-08-01T09:29:11;99799.19;;;28.77;45.45
73063;BME280;61230;46.328;19.972;2023-08-01T09:31:40;99793.69;;;28.92;44.59
73063;BME280;61230;46.328;19.972;2023-08-01T09:34:25;99787.78;;;28.85;43.71
73063;BME280;61230;46.328;19.972;2023-08-01T09:37:00;99787.25;;;28.73;45.08
73063;BME280;61230;46.328;19.972;2023-08-01T09:39:28;99788.31;;;28.82;44.87
73063;BME280;61230;46.328;19.972;2023-08-01T09:42:00;99786.59;;;29.06;43.06
73063;BME280;61230;46.328;19.972;2023-08-01T09:44:29;99772.63;;;29.48;42.76
73063;BME280;61230;46.328;19.972;2023-08-01T09:47:02;99781.47;;;29.64;43.68
73063;BME280;61230;46.328;19.972;2023-08-01T09:49:30;99776.03;;;29.64;42.24
73063;BME280;61230;46.328;19.972;2023-08-01T09:51:58;99768.38;;;29.76;42.92
73063;BME280;61230;46.328;19.972;2023-08-01T09:54:26;99760.97;;;29.48;41.13
73063;BME280;61230;46.328;19.972;2023-08-01T09:56:54;99765.50;;;29.57;40.36
73063;BME280;61230;46.328;19.972;2023-08-01T09:59:25;99760.56;;;29.64;43.04
73063;BME280;61230;46.328;19.972;2023-08-01T10:01:54;99759.25;;;29.62;42.32
73063;BME280;61230;46.328;19.972;2023-08-01T10:04:29;99754.28;;;29.74;39.20
73063;BME280;61230;46.328;19.972;2023-08-01T10:06:58;99744.94;;;29.51;40.05
73063;BME280;61230;46.328;19.972;2023-08-01T10:09:29;99749.31;;;29.86;40.47
73063;BME280;61230;46.328;19.972;2023-08-01T10:11:57;99740.56;;;29.94;39.23
73063;BME280;61230;46.328;19.972;2023-08-01T10:14:26;99752.75;;;30.31;38.82
73063;BME280;61230;46.328;19.972;2023-08-01T10:16:55;99745.31;;;30.12;38.35
73063;BME280;61230;46.328;19.972;2023-08-01T10:19:24;99739.59;;;30.14;38.47
73063;BME280;61230;46.328;19.972;2023-08-01T10:21:53;99739.31;;;30.44;39.84
73063;BME280;61230;46.328;19.972;2023-08-01T10:24:25;99732.88;;;30.64;38.96
73063;BME280;61230;46.328;19.972;2023-08-01T10:26:53;99737.94;;;30.47;37.97
73063;BME280;61230;46.328;19.972;2023-08-01T10:29:21;99706.97;;;30.19;37.08
73063;BME280;61230;46.328;19.972;2023-08-01T10:31:53;99730.47;;;30.29;37.01
73063;BME280;61230;46.328;19.972;2023-08-01T10:34:21;99693.22;;;30.34;36.90
73063;BME280;61230;46.328;19.972;2023-08-01T10:36:55;99685.28;;;30.66;36.24
73063;BME280;61230;46.328;19.972;2023-08-01T10:39:25;99715.34;;;30.75;36.64
73063;BME280;61230;46.328;19.972;2023-08-01T10:41:58;99698.38;;;30.83;34.80
73063;BME280;61230;46.328;19.972;2023-08-01T10:44:26;99696.56;;;30.79;35.94
73063;BME280;61230;46.328;19.972;2023-08-01T10:46:58;99696.13;;;30.90;36.40
73063;BME280;61230;46.328;19.972;2023-08-01T10:49:52;99697.59;;;30.06;36.01
73063;BME280;61230;46.328;19.972;2023-08-01T10:52:22;99695.00;;;30.49;36.99
73063;BME280;61230;46.328;19.972;2023-08-01T10:54:57;99688.59;;;30.63;36.32
73063;BME280;61230;46.328;19.972;2023-08-01T10:57:28;99683.47;;;31.04;35.56
73063;BME280;61230;46.328;19.972;2023-08-01T10:59:57;99671.28;;;31.02;35.23
73063;BME280;61230;46.328;19.972;2023-08-01T11:02:27;99671.59;;;31.19;35.63
73063;BME280;61230;46.328;19.972;2023-08-01T11:04:59;99666.63;;;31.02;34.27
73063;BME280;61230;46.328;19.972;2023-08-01T11:07:27;99664.56;;;30.94;34.43
73063;BME280;61230;46.328;19.972;2023-08-01T11:10:09;99657.37;;;31.03;33.09
73063;BME280;61230;46.328;19.972;2023-08-01T11:12:39;99657.37;;;31.03;34.23
73063;BME280;61230;46.328;19.972;2023-08-01T11:15:09;99651.37;;;31.06;33.15
73063;BME280;61230;46.328;19.972;2023-08-01T11:17:38;99647.91;;;31.38;34.03
73063;BME280;61230;46.328;19.972;2023-08-01T11:20:10;99644.69;;;31.68;34.30
73063;BME280;61230;46.328;19.972;2023-08-01T11:22:58;99644.88;;;31.40;32.82
73063;BME280;61230;46.328;19.972;2023-08-01T11:25:37;99648.22;;;31.18;33.33
73063;BME280;61230;46.328;19.972;2023-08-01T11:28:07;99635.28;;;31.10;33.13
73063;BME280;61230;46.328;19.972;2023-08-01T11:30:36;99635.41;;;31.00;32.51
73063;BME280;61230;46.328;19.972;2023-08-01T11:33:17;99629.25;;;30.94;32.24
73063;BME280;61230;46.328;19.972;2023-08-01T11:35:55;99621.84;;;31.18;32.95
73063;BME280;61230;46.328;19.972;2023-08-01T11:38:29;99584.16;;;30.93;33.97
73063;BME280;61230;46.328;19.972;2023-08-01T11:40:58;99613.41;;;31.01;34.06
73063;BME280;61230;46.328;19.972;2023-08-01T11:43:25;99606.84;;;31.02;33.20
73063;BME280;61230;46.328;19.972;2023-08-01T11:45:56;99604.03;;;30.70;34.00
73063;BME280;61230;46.328;19.972;2023-08-01T11:48:27;99598.41;;;31.04;33.32
73063;BME280;61230;46.328;19.972;2023-08-01T11:50:58;99596.44;;;31.42;33.87
73063;BME280;61230;46.328;19.972;2023-08-01T11:53:27;99595.50;;;31.65;32.49
73063;BME280;61230;46.328;19.972;2023-08-01T11:55:55;99583.97;;;31.86;31.52
73063;BME280;61230;46.328;19.972;2023-08-01T11:58:36;99584.56;;;31.70;31.42
73063;BME280;61230;46.328;19.972;2023-08-01T12:01:14;99589.53;;;31.95;32.80
73063;BME280;61230;46.328;19.972;2023-08-01T12:03:47;99553.63;;;31.79;32.36
73063;BME280;61230;46.328;19.972;2023-08-01T12:06:16;99581.84;;;31.83;31.90
73063;BME280;61230;46.328;19.972;2023-08-01T12:08:46;99576.31;;;31.88;32.92
73063;BME280;61230;46.328;19.972;2023-08-01T12:13:47;99560.81;;;32.16;31.27
73063;BME280;61230;46.328;19.972;2023-08-01T12:16:15;99554.97;;;31.96;31.72
73063;BME280;61230;46.328;19.972;2023-08-01T12:18:47;99547.56;;;31.82;31.85
73063;BME280;61230;46.328;19.972;2023-08-01T12:21:31;99546.59;;;31.46;33.38
73063;BME280;61230;46.328;19.972;2023-08-01T12:23:59;99539.72;;;31.81;32.21
73063;BME280;61230;46.328;19.972;2023-08-01T12:26:27;99534.00;;;32.10;30.32
73063;BME280;61230;46.328;19.972;2023-08-01T12:28:54;99534.72;;;32.65;29.96
73063;BME280;61230;46.328;19.972;2023-08-01T12:31:23;99477.19;;;32.30;30.72
73063;BME280;61230;46.328;19.972;2023-08-01T12:33:51;99525.25;;;32.62;31.47
73063;BME280;61230;46.328;19.972;2023-08-01T12:36:20;99521.06;;;31.74;32.19
73063;BME280;61230;46.328;19.972;2023-08-01T12:38:49;99523.44;;;31.49;32.04
73063;BME280;61230;46.328;19.972;2023-08-01T12:41:17;99523.69;;;30.83;32.95
73063;BME280;61230;46.328;19.972;2023-08-01T12:43:44;99513.78;;;30.73;32.56
73063;BME280;61230;46.328;19.972;2023-08-01T12:46:12;99471.91;;;30.18;32.80
73063;BME280;61230;46.328;19.972;2023-08-01T12:48:40;99502.66;;;30.13;33.59
73063;BME280;61230;46.328;19.972;2023-08-01T12:51:08;99508.13;;;30.08;33.42
73063;BME280;61230;46.328;19.972;2023-08-01T12:53:35;99495.38;;;30.09;33.78
73063;BME280;61230;46.328;19.972;2023-08-01T12:56:04;99490.41;;;30.16;32.28